createdAt,value
2018-07-30T00:01:59.417Z,71.40
2018-07-30T00:04:28.018Z,71.50
2018-07-30T00:06:56.555Z,71.70
2018-07-30T00:09:25.222Z,71.60
2018-07-30T00:11:53.797Z,71.70
2018-07-30T00:14:22.428Z,71.70
2018-07-30T00:16:50.972Z,71.40
2018-07-30T00:19:19.566Z,71.30
2018-07-30T00:21:48.122Z,71.30
2018-07-30T00:24:16.665Z,71.20
2018-07-30T00:26:45.375Z,71.50
2018-07-30T00:29:13.898Z,71.40
2018-07-30T00:31:42.480Z,71.20
2018-07-30T00:34:11.064Z,71.30
2018-07-30T00:36:39.629Z,71.50
2018-07-30T00:39:11.067Z,71.80
2018-07-30T00:41:40.438Z,72.00
2018-07-30T00:44:09.179Z,72.10
2018-07-30T00:46:38.555Z,72.30
2018-07-30T00:49:07.909Z,72.30
2018-07-30T00:51:36.651Z,72.30
2018-07-30T00:54:05.165Z,72.60
2018-07-30T00:56:33.736Z,72.70
2018-07-30T00:59:02.287Z,72.60
2018-07-30T01:01:30.850Z,72.60
2018-07-30T01:03:59.378Z,72.80
2018-07-30T01:06:27.955Z,72.70
2018-07-30T01:08:56.540Z,72.70
2018-07-30T01:11:25.106Z,72.70
2018-07-30T01:13:53.668Z,72.80
2018-07-30T01:16:22.238Z,72.80
2018-07-30T01:18:50.787Z,73.00
2018-07-30T01:21:19.374Z,73.10
2018-07-30T01:23:47.958Z,73.00
2018-07-30T01:26:21.658Z,73.40
2018-07-30T01:28:50.207Z,73.60
2018-07-30T01:31:18.773Z,73.70
2018-07-30T01:33:47.329Z,73.70
2018-07-30T01:36:15.906Z,73.90
2018-07-30T01:38:44.440Z,74.10
2018-07-30T01:41:13.009Z,74.40
2018-07-30T01:43:41.546Z,74.50
2018-07-30T01:46:10.137Z,74.70
2018-07-30T01:48:38.680Z,74.80
2018-07-30T01:51:07.265Z,75.10
2018-07-30T01:53:35.815Z,75.20
2018-07-30T01:56:04.420Z,75.30
2018-07-30T01:58:32.977Z,75.10
2018-07-30T02:01:01.576Z,75.00
2018-07-30T02:03:30.183Z,75.20
2018-07-30T02:05:58.764Z,74.90
2018-07-30T02:08:27.350Z,75.10
2018-07-30T02:10:57.235Z,75.30
2018-07-30T02:13:25.824Z,75.50
2018-07-30T02:15:54.419Z,75.70
2018-07-30T02:18:22.987Z,75.90
2018-07-30T02:20:51.598Z,76.20
2018-07-30T02:23:20.176Z,75.90
2018-07-30T02:25:48.818Z,75.90
2018-07-30T02:28:17.400Z,76.00
2018-07-30T02:30:45.976Z,76.40
2018-07-30T02:33:14.546Z,76.60
2018-07-30T02:35:43.178Z,76.70
2018-07-30T02:38:11.804Z,76.70
2018-07-30T02:40:40.508Z,76.70
2018-07-30T02:43:09.094Z,77.00
2018-07-30T02:45:37.668Z,77.20
2018-07-30T02:48:06.294Z,77.20
2018-07-30T02:50:34.861Z,77.20
2018-07-30T02:53:03.501Z,77.30
2018-07-30T02:55:32.055Z,77.40
2018-07-30T02:58:00.656Z,77.40
2018-07-30T03:00:29.226Z,77.40
2018-07-30T03:02:57.834Z,77.50
2018-07-30T03:05:26.412Z,77.50
2018-07-30T03:07:54.972Z,77.50
2018-07-30T03:10:23.575Z,77.70
2018-07-30T03:12:52.136Z,77.40
2018-07-30T03:15:20.657Z,77.60
2018-07-30T03:17:49.265Z,77.40
2018-07-30T03:20:17.858Z,77.40
2018-07-30T03:22:46.420Z,77.30
2018-07-30T03:25:14.961Z,77.20
2018-07-30T03:27:43.524Z,77.20
2018-07-30T03:30:12.075Z,76.70
2018-07-30T03:32:41.081Z,76.70
2018-07-30T03:35:09.622Z,76.70
2018-07-30T03:37:38.183Z,77.00
2018-07-30T03:40:07.602Z,77.00
2018-07-30T03:42:36.948Z,76.80
2018-07-30T03:47:34.828Z,76.50
2018-07-30T03:50:03.417Z,76.80
2018-07-30T03:52:31.963Z,76.90
2018-07-30T03:55:00.534Z,76.80
2018-07-30T03:57:29.142Z,76.60
2018-07-30T03:59:57.688Z,76.60
2018-07-30T04:02:26.275Z,76.70
2018-07-30T04:04:54.822Z,77.00
2018-07-30T04:07:23.369Z,77.10
2018-07-30T04:09:51.934Z,77.80
2018-07-30T04:12:20.513Z,77.50
2018-07-30T04:14:49.071Z,77.40
2018-07-30T04:17:17.609Z,77.40
2018-07-30T04:19:46.160Z,77.50
2018-07-30T04:22:14.781Z,77.00
2018-07-30T04:24:43.272Z,77.00
2018-07-30T04:27:11.836Z,77.40
2018-07-30T04:29:40.341Z,76.60
2018-07-30T04:32:08.887Z,76.00
2018-07-30T04:34:37.427Z,75.20
2018-07-30T04:37:05.964Z,75.20
2018-07-30T04:39:34.528Z,74.80
2018-07-30T04:42:03.064Z,74.80
2018-07-30T04:44:31.602Z,74.70
2018-07-30T04:47:00.125Z,74.60
2018-07-30T04:49:28.685Z,74.20
2018-07-30T04:51:57.234Z,74.20
2018-07-30T04:54:25.795Z,74.10
2018-07-30T04:56:54.370Z,74.40
2018-07-30T04:59:22.900Z,74.40
2018-07-30T05:01:51.427Z,74.60
2018-07-30T05:04:19.985Z,75.10
2018-07-30T05:06:48.524Z,76.30
2018-07-30T05:09:17.100Z,76.10
2018-07-30T05:11:45.623Z,75.50
2018-07-30T05:14:14.189Z,75.90
2018-07-30T05:16:42.726Z,75.90
2018-07-30T05:19:11.324Z,75.60
2018-07-30T05:21:39.898Z,74.50
2018-07-30T05:24:08.980Z,74.10
2018-07-30T05:26:37.538Z,74.40
2018-07-30T05:29:06.104Z,75.30
2018-07-30T05:31:34.624Z,75.50
2018-07-30T05:34:03.203Z,75.80
2018-07-30T05:36:31.744Z,75.30
2018-07-30T05:39:00.274Z,75.10
2018-07-30T05:41:28.851Z,75.30
2018-07-30T05:43:57.391Z,75.00
2018-07-30T05:46:25.929Z,74.90
2018-07-30T05:48:54.510Z,73.80
2018-07-30T05:51:23.053Z,74.10
2018-07-30T05:53:51.583Z,74.00
2018-07-30T05:56:20.112Z,72.60
2018-07-30T05:58:48.661Z,70.80
2018-07-30T06:01:17.222Z,70.30
2018-07-30T06:03:45.792Z,69.70
2018-07-30T06:06:14.385Z,69.80
2018-07-30T06:08:42.964Z,69.40
2018-07-30T06:11:11.506Z,69.30
2018-07-30T06:13:40.096Z,67.90
2018-07-30T06:16:08.620Z,67.20
2018-07-30T06:18:37.176Z,66.70
2018-07-30T06:21:05.757Z,66.00
2018-07-30T06:23:34.303Z,64.80
2018-07-30T06:26:02.832Z,61.90
2018-07-30T06:28:31.388Z,62.40
2018-07-30T06:30:59.927Z,61.10
2018-07-30T06:33:28.484Z,59.50
2018-07-30T06:35:57.066Z,59.00
2018-07-30T06:38:25.640Z,58.50
2018-07-30T06:40:54.215Z,58.10
2018-07-30T06:43:22.732Z,58.10
2018-07-30T06:45:51.291Z,58.30
2018-07-30T06:48:19.838Z,59.40
2018-07-30T06:50:48.419Z,58.20
2018-07-30T06:53:17.205Z,57.80
2018-07-30T06:55:45.826Z,57.70
2018-07-30T06:58:14.389Z,57.80
2018-07-30T07:00:42.947Z,58.60
2018-07-30T07:03:11.537Z,57.60
2018-07-30T07:05:40.086Z,57.40
2018-07-30T07:08:08.666Z,58.50
2018-07-30T07:10:37.281Z,57.50
2018-07-30T07:13:05.927Z,57.40
2018-07-30T07:15:34.468Z,57.40
2018-07-30T07:18:03.010Z,57.10
2018-07-30T07:20:31.574Z,56.90
2018-07-30T07:23:00.105Z,57.50
2018-07-30T07:25:28.663Z,56.60
2018-07-30T07:27:57.209Z,57.00
2018-07-30T07:30:25.767Z,55.60
2018-07-30T07:32:54.288Z,56.00
2018-07-30T07:35:22.894Z,56.00
2018-07-30T07:37:51.408Z,54.70
2018-07-30T07:40:20.027Z,54.70
2018-07-30T07:42:48.608Z,55.00
2018-07-30T07:45:17.167Z,56.10
2018-07-30T07:47:45.705Z,56.50
2018-07-30T07:50:14.406Z,55.60
2018-07-30T07:52:42.907Z,55.00
2018-07-30T07:55:11.519Z,55.50
2018-07-30T07:57:40.044Z,54.90
2018-07-30T08:00:10.054Z,54.90
2018-07-30T08:02:38.590Z,55.50
2018-07-30T08:05:07.671Z,55.10
2018-07-30T08:07:36.990Z,54.20
2018-07-30T08:10:06.253Z,54.40
2018-07-30T08:12:34.897Z,54.20
2018-07-30T08:15:03.546Z,54.20
2018-07-30T08:17:32.088Z,53.70
2018-07-30T08:20:00.656Z,53.60
2018-07-30T08:22:29.183Z,53.20
2018-07-30T08:24:57.711Z,53.10
2018-07-30T08:27:26.241Z,51.90
2018-07-30T08:29:54.819Z,52.40
2018-07-30T08:32:23.345Z,53.40
2018-07-30T08:34:51.864Z,53.00
2018-07-30T08:37:20.435Z,51.50
2018-07-30T08:39:48.971Z,53.30
2018-07-30T08:42:17.547Z,51.80
2018-07-30T08:44:46.108Z,53.10
2018-07-30T08:47:14.667Z,51.40
2018-07-30T08:49:43.206Z,50.60
2018-07-30T08:52:11.818Z,50.90
2018-07-30T08:54:40.349Z,49.60
2018-07-30T08:57:08.904Z,49.10
2018-07-30T08:59:37.453Z,46.60
2018-07-30T09:02:06.152Z,48.40
2018-07-30T09:04:34.737Z,46.10
2018-07-30T09:07:03.350Z,45.80
2018-07-30T09:09:31.912Z,46.00
2018-07-30T09:12:00.540Z,45.40
2018-07-30T09:14:29.053Z,45.60
2018-07-30T09:16:57.611Z,46.20
2018-07-30T09:19:26.139Z,44.20
2018-07-30T09:21:54.714Z,44.00
2018-07-30T09:24:23.290Z,43.60
2018-07-30T09:26:51.887Z,43.60
2018-07-30T09:29:20.432Z,43.40
2018-07-30T09:31:48.980Z,43.10
2018-07-30T09:34:17.567Z,42.30
2018-07-30T09:36:46.108Z,42.10
2018-07-30T09:39:14.716Z,43.60
2018-07-30T09:41:45.100Z,41.60
2018-07-30T09:44:13.621Z,41.50
2018-07-30T09:46:42.256Z,42.40
2018-07-30T09:49:10.828Z,41.60
2018-07-30T09:51:39.408Z,41.80
2018-07-30T09:54:07.962Z,42.80
2018-07-30T09:56:36.602Z,43.40
2018-07-30T09:59:05.367Z,44.30
2018-07-30T10:01:33.927Z,44.20
2018-07-30T10:04:02.507Z,41.90
2018-07-30T10:06:31.036Z,42.50
2018-07-30T10:08:59.677Z,42.20
2018-07-30T10:11:28.270Z,43.70
2018-07-30T10:13:56.868Z,42.20
2018-07-30T10:16:25.391Z,41.10
2018-07-30T10:18:54.079Z,40.90
2018-07-30T10:21:22.616Z,41.10
2018-07-30T10:23:51.204Z,39.30
2018-07-30T10:26:19.759Z,38.50
2018-07-30T10:28:48.332Z,39.40
2018-07-30T10:31:16.893Z,40.50
2018-07-30T10:33:45.992Z,38.80
2018-07-30T10:36:14.593Z,39.60
2018-07-30T10:38:43.744Z,38.30
2018-07-30T10:41:12.987Z,36.50
2018-07-30T10:43:41.589Z,39.10
2018-07-30T10:46:10.195Z,38.30
2018-07-30T10:48:38.778Z,36.80
2018-07-30T10:51:07.299Z,35.00
2018-07-30T10:53:35.843Z,36.50
2018-07-30T10:56:04.481Z,35.80
2018-07-30T10:58:33.033Z,36.70
2018-07-30T11:01:01.730Z,35.80
2018-07-30T11:03:30.274Z,33.90
2018-07-30T11:05:58.872Z,35.40
2018-07-30T11:08:27.437Z,34.90
2018-07-30T11:10:56.005Z,34.20
2018-07-30T11:13:24.545Z,34.00
2018-07-30T11:15:53.185Z,33.10
2018-07-30T11:18:21.831Z,33.50
2018-07-30T11:20:50.378Z,34.30
2018-07-30T11:23:18.995Z,34.20
2018-07-30T11:25:47.543Z,34.40
2018-07-30T11:28:16.121Z,33.80
2018-07-30T11:30:44.670Z,33.80
2018-07-30T11:33:13.225Z,33.00
2018-07-30T11:35:41.829Z,33.00
2018-07-30T11:38:10.367Z,33.10
2018-07-30T11:40:38.885Z,32.00
2018-07-30T11:43:07.454Z,32.80
2018-07-30T11:45:35.974Z,32.90
2018-07-30T11:48:04.517Z,32.80
2018-07-30T11:50:33.088Z,31.50
2018-07-30T11:53:01.702Z,31.10
2018-07-30T11:55:30.310Z,31.50
2018-07-30T11:57:59.150Z,31.10
2018-07-30T12:00:27.785Z,30.90
2018-07-30T12:02:56.299Z,30.00
2018-07-30T12:05:24.912Z,30.00
2018-07-30T12:07:53.464Z,29.80
2018-07-30T12:10:22.026Z,30.10
2018-07-30T12:12:50.623Z,30.40
2018-07-30T12:15:19.219Z,30.30
2018-07-30T12:17:47.808Z,29.90
2018-07-30T12:20:16.404Z,31.10
2018-07-30T12:22:44.964Z,30.00
2018-07-30T12:25:13.496Z,30.30
2018-07-30T12:27:42.073Z,31.10
2018-07-30T12:30:10.694Z,30.60
2018-07-30T12:32:39.253Z,31.40
2018-07-30T12:35:07.845Z,31.80
2018-07-30T12:37:36.361Z,31.10
2018-07-30T12:40:05.008Z,31.20
2018-07-30T12:42:33.552Z,30.60
2018-07-30T12:45:02.176Z,30.60
2018-07-30T12:47:30.704Z,29.70
2018-07-30T12:49:59.256Z,29.80
2018-07-30T12:52:27.952Z,30.90
2018-07-30T12:54:56.459Z,31.30
2018-07-30T12:57:25.050Z,28.90
2018-07-30T12:59:53.649Z,30.80
2018-07-30T13:02:22.192Z,31.00
2018-07-30T13:04:50.768Z,30.00
2018-07-30T13:07:19.288Z,29.70
2018-07-30T13:09:48.682Z,29.90
2018-07-30T13:12:23.066Z,30.00
2018-07-30T13:14:51.716Z,30.70
2018-07-30T13:17:20.267Z,30.30
2018-07-30T13:19:48.848Z,30.90
2018-07-30T13:22:17.486Z,30.30
2018-07-30T13:24:46.031Z,30.50
2018-07-30T13:27:14.614Z,30.30
2018-07-30T13:29:43.262Z,31.60
2018-07-30T13:32:11.855Z,31.20
2018-07-30T13:34:40.504Z,30.40
2018-07-30T13:37:09.111Z,30.00
2018-07-30T13:39:37.724Z,32.00
2018-07-30T13:42:06.296Z,30.30
2018-07-30T13:44:34.956Z,30.20
2018-07-30T13:47:03.660Z,30.00
2018-07-30T13:49:34.343Z,29.30
2018-07-30T13:52:03.144Z,29.20
2018-07-30T13:54:32.867Z,30.40
2018-07-30T13:57:01.669Z,29.60
2018-07-30T13:59:30.383Z,30.00
2018-07-30T14:01:59.189Z,29.80
2018-07-30T14:04:42.963Z,29.90
2018-07-30T14:07:15.336Z,29.70
2018-07-30T14:09:44.592Z,30.30
2018-07-30T14:12:13.586Z,30.00
2018-07-30T14:14:42.412Z,30.00
2018-07-30T14:17:11.737Z,29.10
2018-07-30T14:19:40.395Z,29.60
2018-07-30T14:22:09.082Z,29.80
2018-07-30T14:24:37.808Z,29.10
2018-07-30T14:27:06.507Z,29.10
2018-07-30T14:29:35.137Z,28.80
2018-07-30T14:32:04.002Z,29.20
2018-07-30T14:34:32.826Z,28.90
2018-07-30T14:37:01.596Z,28.60
2018-07-30T14:39:30.450Z,29.30
2018-07-30T14:41:59.036Z,28.80
2018-07-30T14:44:27.943Z,28.20
2018-07-30T14:46:56.795Z,28.30
2018-07-30T14:49:25.762Z,29.40
2018-07-30T14:51:54.673Z,29.40
2018-07-30T14:54:23.234Z,29.00
2018-07-30T14:56:52.501Z,29.50
2018-07-30T14:59:21.099Z,29.20
2018-07-30T15:01:49.696Z,29.70
2018-07-30T15:04:18.287Z,27.90
2018-07-30T15:06:47.828Z,28.60
2018-07-30T15:09:16.380Z,29.60
2018-07-30T15:11:44.991Z,28.60
2018-07-30T15:14:13.582Z,29.20
2018-07-30T15:16:42.192Z,29.60
2018-07-30T15:19:10.825Z,28.00
2018-07-30T15:21:39.507Z,27.60
2018-07-30T15:24:08.196Z,27.30
2018-07-30T15:26:36.790Z,27.50
2018-07-30T15:29:05.396Z,28.60
2018-07-30T15:31:33.978Z,28.50
2018-07-30T15:34:02.550Z,27.70
2018-07-30T15:36:31.153Z,27.60
2018-07-30T15:38:59.678Z,26.70
2018-07-30T15:41:28.252Z,26.10
2018-07-30T15:43:56.808Z,26.50
2018-07-30T15:46:25.406Z,28.30
2018-07-30T15:48:53.972Z,28.50
2018-07-30T15:51:22.563Z,27.50
2018-07-30T15:53:51.116Z,26.60
2018-07-30T15:56:19.674Z,26.70
2018-07-30T15:58:48.217Z,27.60
2018-07-30T16:01:16.790Z,27.30
2018-07-30T16:06:13.660Z,27.20
2018-07-30T16:08:42.234Z,27.10
2018-07-30T16:11:10.850Z,27.00
2018-07-30T16:13:39.432Z,28.20
2018-07-30T16:16:08.100Z,29.70
2018-07-30T16:18:36.660Z,29.10
2018-07-30T16:21:05.296Z,28.90
2018-07-30T16:23:33.860Z,29.20
2018-07-30T16:26:02.441Z,29.70
2018-07-30T16:28:31.117Z,30.20
2018-07-30T16:30:59.707Z,30.70
2018-07-30T16:33:28.264Z,30.60
2018-07-30T16:35:56.860Z,30.60
2018-07-30T16:38:25.428Z,30.40
2018-07-30T16:40:54.063Z,30.70
2018-07-30T16:43:22.668Z,31.20
2018-07-30T16:45:51.250Z,30.60
2018-07-30T16:48:19.827Z,30.70
2018-07-30T16:50:48.410Z,31.20
2018-07-30T16:53:17.340Z,31.00
2018-07-30T16:55:46.903Z,31.20
2018-07-30T16:58:15.445Z,31.10
2018-07-30T17:00:44.006Z,32.30
2018-07-30T17:03:12.625Z,32.30
2018-07-30T17:05:41.227Z,31.40
2018-07-30T17:08:09.836Z,31.30
2018-07-30T17:10:38.430Z,31.90
2018-07-30T17:13:07.053Z,32.00
2018-07-30T17:15:35.766Z,31.70
2018-07-30T17:18:04.348Z,32.60
2018-07-30T17:20:32.872Z,33.10
2018-07-30T17:23:01.554Z,32.80
2018-07-30T17:25:30.093Z,33.80
2018-07-30T17:27:58.670Z,33.40
2018-07-30T17:30:27.198Z,33.00
2018-07-30T17:32:55.871Z,33.70
2018-07-30T17:35:24.438Z,33.80
2018-07-30T17:37:52.995Z,33.60
2018-07-30T17:40:21.522Z,33.00
2018-07-30T17:42:50.108Z,33.30
2018-07-30T17:45:18.662Z,34.10
2018-07-30T17:47:47.259Z,34.50
2018-07-30T17:50:15.832Z,34.20
2018-07-30T17:52:44.401Z,34.70
2018-07-30T17:55:13.050Z,34.70
2018-07-30T17:57:41.627Z,34.70
2018-07-30T18:00:10.996Z,35.80
2018-07-30T18:02:39.629Z,35.90
2018-07-30T18:05:08.587Z,35.70
2018-07-30T18:07:37.181Z,35.70
2018-07-30T18:10:06.224Z,36.00
2018-07-30T18:12:34.806Z,36.30
2018-07-30T18:15:03.461Z,36.60
2018-07-30T18:17:32.036Z,37.30
2018-07-30T18:20:00.593Z,38.40
2018-07-30T18:22:29.160Z,37.30
2018-07-30T18:24:57.731Z,38.90
2018-07-30T18:27:26.278Z,39.40
2018-07-30T18:29:54.910Z,38.80
2018-07-30T18:32:23.455Z,39.80
2018-07-30T18:34:51.988Z,40.80
2018-07-30T18:37:20.555Z,40.30
2018-07-30T18:39:49.094Z,41.90
2018-07-30T18:42:17.662Z,42.20
2018-07-30T18:44:46.204Z,42.00
2018-07-30T18:47:14.756Z,42.30
2018-07-30T18:49:43.284Z,42.80
2018-07-30T18:52:11.944Z,42.50
2018-07-30T18:54:40.483Z,42.90
2018-07-30T18:57:09.026Z,43.90
2018-07-30T18:59:37.606Z,43.40
2018-07-30T19:02:06.172Z,43.90
2018-07-30T19:04:34.712Z,44.00
2018-07-30T19:07:03.283Z,44.60
2018-07-30T19:09:31.910Z,44.30
2018-07-30T19:12:00.467Z,44.90
2018-07-30T19:14:29.040Z,45.50
2018-07-30T19:16:57.643Z,46.30
2018-07-30T19:19:26.209Z,47.00
2018-07-30T19:21:54.731Z,47.10
2018-07-30T19:24:23.315Z,47.30
2018-07-30T19:26:51.833Z,47.60
2018-07-30T19:29:20.383Z,48.30
2018-07-30T19:31:48.961Z,47.80
2018-07-30T19:34:17.541Z,47.60
2018-07-30T19:36:46.050Z,48.30
2018-07-30T19:39:14.643Z,48.20
2018-07-30T19:41:43.189Z,48.40
2018-07-30T19:44:11.857Z,49.50
2018-07-30T19:46:40.383Z,49.90
2018-07-30T19:49:08.956Z,50.50
2018-07-30T19:51:37.521Z,51.00
2018-07-30T19:54:06.201Z,50.40
2018-07-30T19:56:34.760Z,51.10
2018-07-30T19:59:03.486Z,50.50
2018-07-30T20:01:31.927Z,50.70
2018-07-30T20:04:00.459Z,51.40
2018-07-30T20:06:29.092Z,51.00
2018-07-30T20:08:57.630Z,51.90
2018-07-30T20:11:26.204Z,51.90
2018-07-30T20:13:54.787Z,51.70
2018-07-30T20:16:23.322Z,52.60
2018-07-30T20:18:51.877Z,51.90
2018-07-30T20:21:20.420Z,52.10
2018-07-30T20:23:49.051Z,53.00
2018-07-30T20:26:17.607Z,53.60
2018-07-30T20:28:46.173Z,53.30
2018-07-30T20:31:29.440Z,54.00
2018-07-30T20:33:58.929Z,54.20
2018-07-30T20:36:27.494Z,54.10
2018-07-30T20:38:56.030Z,53.80
2018-07-30T20:41:24.646Z,53.80
2018-07-30T20:43:53.793Z,54.60
2018-07-30T20:46:22.482Z,54.90
2018-07-30T20:48:51.157Z,54.80
2018-07-30T20:53:47.983Z,55.50
2018-07-30T20:56:16.537Z,55.70
2018-07-30T20:58:45.106Z,55.40
2018-07-30T21:01:13.726Z,55.30
2018-07-30T21:03:42.262Z,55.80
2018-07-30T21:06:10.836Z,55.30
2018-07-30T21:08:39.390Z,56.10
2018-07-30T21:11:07.956Z,56.00
2018-07-30T21:13:36.489Z,56.80
2018-07-30T21:16:05.104Z,57.00
2018-07-30T21:18:33.636Z,57.30
2018-07-30T21:21:02.196Z,56.90
2018-07-30T21:23:30.755Z,57.10
2018-07-30T21:25:59.315Z,57.20
2018-07-30T21:28:27.837Z,56.50
2018-07-30T21:30:56.402Z,56.20
2018-07-30T21:33:24.910Z,56.20
2018-07-30T21:35:53.705Z,56.50
2018-07-30T21:38:22.248Z,57.50
2018-07-30T21:40:51.091Z,56.90
2018-07-30T21:43:19.626Z,57.40
2018-07-30T21:45:48.169Z,57.30
2018-07-30T21:48:16.700Z,57.30
2018-07-30T21:50:45.274Z,58.30
2018-07-30T21:53:13.825Z,58.00
2018-07-30T21:55:42.378Z,57.60
2018-07-30T21:58:10.901Z,57.80
2018-07-30T22:00:39.526Z,57.00
2018-07-30T22:03:08.090Z,57.10
2018-07-30T22:05:36.657Z,56.80
2018-07-30T22:08:05.258Z,57.30
2018-07-30T22:10:33.859Z,58.40
2018-07-30T22:13:02.424Z,58.60
2018-07-30T22:15:30.991Z,58.80
2018-07-30T22:17:59.540Z,58.30
2018-07-30T22:20:28.059Z,58.40
2018-07-30T22:22:56.583Z,58.80
2018-07-30T22:25:25.128Z,58.80
2018-07-30T22:27:53.698Z,59.30
2018-07-30T22:30:22.265Z,58.90
2018-07-30T22:32:50.810Z,59.00
2018-07-30T22:35:19.383Z,59.30
2018-07-30T22:37:47.916Z,59.30
2018-07-30T22:40:16.459Z,59.80
2018-07-30T22:42:44.993Z,59.60
2018-07-30T22:45:13.518Z,59.80
2018-07-30T22:47:42.042Z,60.00
2018-07-30T22:50:10.658Z,59.90
2018-07-30T22:52:39.200Z,60.10
2018-07-30T22:55:07.774Z,60.20
2018-07-30T22:57:36.322Z,60.70
2018-07-30T23:00:05.740Z,61.30
2018-07-30T23:02:34.358Z,61.30
2018-07-30T23:05:03.017Z,61.90
2018-07-30T23:07:31.971Z,60.90
2018-07-30T23:10:00.704Z,61.20
2018-07-30T23:12:29.242Z,61.00
2018-07-30T23:14:57.768Z,61.40
2018-07-30T23:17:26.336Z,61.70
2018-07-30T23:19:54.834Z,61.60
2018-07-30T23:22:23.388Z,62.60
2018-07-30T23:24:52.321Z,62.30
2018-07-30T23:27:20.843Z,62.30
2018-07-30T23:29:49.373Z,62.30
2018-07-30T23:32:17.926Z,62.10
2018-07-30T23:34:46.455Z,62.60
2018-07-30T23:37:15.138Z,62.40
2018-07-30T23:39:43.587Z,62.70
2018-07-30T23:42:12.144Z,62.60
2018-07-30T23:44:40.665Z,63.00
2018-07-30T23:47:09.222Z,62.90
2018-07-30T23:49:37.742Z,63.40
2018-07-30T23:52:06.322Z,63.80
2018-07-30T23:54:34.825Z,64.10
2018-07-30T23:57:03.408Z,64.40
2018-07-30T23:59:31.931Z,64.60
